Time;durP1;ratioP1;P1;durP2;ratioP2;P2;SDS_P1;SDS_P2;PMS_P1;PMS_P2;Temp;Humidity;BMP_temperature;BMP_pressure;BME280_temperature;BME280_humidity;BME280_pressure;Samples;Min_cycle;Max_cycle;Signal;HPM_P1;HPM_P2
2022/11/09 00:02:13;;;;;;;;;0.00;0.00;;;;;14.90;70.65;100507.50;4977552;28;45457;-77
2022/11/09 00:04:38;;;;;;;;;3.00;3.00;;;;;14.88;70.70;100517.22;4976676;28;70074;-77
2022/11/09 00:07:03;;;;;;;;;4.00;2.00;;;;;14.89;71.16;100518.94;4977269;28;45431;-78
2022/11/09 00:09:29;;;;;;;;;2.25;1.00;;;;;14.87;70.82;100518.13;4975001;28;64605;-78
2022/11/09 00:11:54;;;;;;;;;3.00;1.75;;;;;14.86;71.40;100519.09;4977489;28;45358;-77
2022/11/09 00:14:19;;;;;;;;;3.25;0.75;;;;;14.84;72.71;100525.31;4976431;28;70575;-79
2022/11/09 00:16:45;;;;;;;;;2.00;1.00;;;;;14.77;72.66;100518.69;4976099;28;75656;-78
2022/11/09 00:19:12;;;;;;;;;2.00;2.00;;;;;14.69;73.97;100526.91;4976451;28;73296;-79
2022/11/09 00:21:37;;;;;;;;;2.00;1.00;;;;;14.57;74.00;100512.66;4977313;28;45286;-78
2022/11/09 00:24:02;;;;;;;;;1.00;1.00;;;;;14.50;74.50;100500.75;4976995;28;45323;-78
2022/11/09 00:26:28;;;;;;;;;1.25;1.00;;;;;14.41;74.28;100488.09;4976841;28;50734;-79
2022/11/09 00:28:53;;;;;;;;;3.00;1.00;;;;;14.36;75.00;100483.13;4975949;28;45320;-78
2022/11/09 00:31:20;;;;;;;;;7.00;1.25;;;;;14.31;75.20;100472.00;4975299;28;64097;-77
2022/11/09 00:33:50;;;;;;;;;2.75;1.00;;;;;14.28;76.28;100469.53;4964331;28;45372;-77
2022/11/09 00:36:17;;;;;;;;;1.00;1.00;;;;;14.30;75.70;100463.31;4975625;28;45417;-77
2022/11/09 00:38:50;;;;;;;;;2.00;1.00;;;;;14.32;75.68;100464.09;4976488;28;45675;-77
2022/11/09 00:41:15;;;;;;;;;2.00;1.00;;;;;14.33;75.64;100475.41;4970865;28;45369;-78
2022/11/09 00:43:41;;;;;;;;;3.00;1.00;;;;;14.33;75.84;100476.22;4977029;28;45375;-78
2022/11/09 00:46:06;;;;;;;;;2.75;1.00;;;;;14.33;75.85;100470.16;4976778;28;46407;-78
2022/11/09 00:48:32;;;;;;;;;1.75;1.25;;;;;14.31;76.28;100485.09;4976756;28;45311;-78
2022/11/09 00:50:58;;;;;;;;;5.25;2.50;;;;;14.33;75.92;100494.56;4976992;28;45368;-78
2022/11/09 00:53:24;;;;;;;;;3.50;1.00;;;;;14.30;76.77;100505.19;4976604;28;45497;-78
2022/11/09 00:56:13;;;;;;;;;1.75;1.75;;;;;14.27;76.13;100510.56;4976713;28;47232;-78
2022/11/09 00:58:39;;;;;;;;;4.00;2.75;;;;;14.23;76.51;100508.19;4986641;28;45743;-78
2022/11/09 01:01:08;;;;;;;;;3.00;1.00;;;;;14.23;76.69;100490.72;4976881;28;45292;-78
2022/11/09 01:03:33;;;;;;;;;4.75;1.50;;;;;14.24;76.14;100505.47;4975512;28;45324;-78
2022/11/09 01:05:59;;;;;;;;;2.75;1.75;;;;;14.22;76.32;100502.09;4975458;28;66620;-78
2022/11/09 01:08:24;;;;;;;;;2.75;1.00;;;;;14.23;76.31;100501.19;4975619;28;45351;-77
2022/11/09 01:10:49;;;;;;;;;2.50;1.50;;;;;14.24;76.36;100502.84;4975590;28;69466;-78
2022/11/09 01:13:17;;;;;;;;;2.00;1.00;;;;;14.22;76.15;100504.69;4975761;28;68906;-78
2022/11/09 01:15:44;;;;;;;;;2.50;1.75;;;;;14.18;76.09;100510.19;4976292;28;46853;-77
2022/11/09 01:18:10;;;;;;;;;2.00;1.00;;;;;14.17;75.74;100513.69;4976416;28;45481;-78
2022/11/09 01:20:47;;;;;;;;;2.50;1.00;;;;;14.12;75.75;100519.16;4976277;28;45307;-78
2022/11/09 01:23:14;;;;;;;;;1.00;1.00;;;;;14.04;76.02;100506.44;4976562;28;45340;-78
2022/11/09 01:25:39;;;;;;;;;3.00;1.75;;;;;14.03;76.08;100519.59;4976326;28;45453;-78
2022/11/09 01:28:06;;;;;;;;;3.75;1.00;;;;;13.98;76.42;100518.97;4975188;28;72046;-77
2022/11/09 01:30:36;;;;;;;;;1.75;1.00;;;;;13.96;75.98;100521.63;4976526;28;45374;-78
2022/11/09 01:33:09;;;;;;;;;3.25;1.00;;;;;13.92;76.22;100528.78;4976165;28;45420;-78
2022/11/09 01:35:36;;;;;;;;;1.75;1.00;;;;;13.89;75.67;100539.41;4974717;28;45537;-78
2022/11/09 01:38:03;;;;;;;;;1.75;1.75;;;;;13.86;76.00;100536.91;4975977;28;45241;-78
2022/11/09 01:40:30;;;;;;;;;1.75;1.75;;;;;13.80;76.17;100545.06;4963519;28;45250;-78
2022/11/09 01:42:55;;;;;;;;;1.00;1.00;;;;;13.75;76.16;100547.88;4976260;28;45289;-78
2022/11/09 01:45:30;;;;;;;;;1.00;1.00;;;;;13.72;76.14;100541.91;4975958;28;48203;-78
2022/11/09 01:48:09;;;;;;;;;3.00;2.00;;;;;13.70;76.23;100541.16;4975002;28;45440;-77
2022/11/09 01:51:04;;;;;;;;;3.25;1.00;;;;;13.71;76.35;100543.69;4975982;28;45372;-77
2022/11/09 01:53:33;;;;;;;;;0.00;0.00;;;;;13.68;76.24;100548.22;4975760;28;45308;-77
2022/11/09 01:56:01;;;;;;;;;4.50;1.00;;;;;13.69;76.15;100547.31;4974776;28;46857;-78
2022/11/09 01:58:31;;;;;;;;;1.75;1.75;;;;;13.63;76.12;100552.78;4974757;28;45335;-77
2022/11/09 02:00:58;;;;;;;;;4.75;1.00;;;;;13.58;76.05;100552.16;4976143;28;45300;-77
2022/11/09 02:03:29;;;;;;;;;2.25;1.00;;;;;13.57;75.85;100560.94;4974941;28;45351;-77
2022/11/09 02:05:55;;;;;;;;;0.00;0.00;;;;;13.51;76.34;100559.44;4974194;28;47196;-78
2022/11/09 02:08:24;;;;;;;;;3.00;0.00;;;;;13.43;76.26;100554.53;4974120;28;56480;-78
2022/11/09 02:11:08;;;;;;;;;0.00;0.00;;;;;13.41;76.12;100553.75;4974651;28;45411;-78
2022/11/09 02:13:34;;;;;;;;;0.50;0.50;;;;;13.38;76.14;100556.50;4974747;28;45482;-78
2022/11/09 02:16:00;;;;;;;;;3.25;0.00;;;;;13.31;75.74;100553.28;4974490;28;45463;-77
2022/11/09 02:18:26;;;;;;;;;0.75;0.75;;;;;13.29;75.74;100556.88;4974336;28;70031;-79
2022/11/09 02:20:53;;;;;;;;;1.75;1.00;;;;;13.28;75.77;100553.41;4978649;28;55976;-77
2022/11/09 02:23:19;;;;;;;;;4.00;0.75;;;;;13.25;76.10;100548.31;4979246;28;45256;-78
2022/11/09 02:25:55;;;;;;;;;0.00;0.00;;;;;13.22;75.36;100540.59;4977885;28;46329;-77
2022/11/09 02:28:20;;;;;;;;;1.00;0.00;;;;;13.19;75.52;100538.13;4977676;28;45620;-77
2022/11/09 02:30:49;;;;;;;;;0.75;0.00;;;;;13.17;75.74;100530.34;4976975;28;68696;-78
2022/11/09 02:33:15;;;;;;;;;0.00;0.00;;;;;13.16;75.24;100535.63;4969867;28;45461;-77
2022/11/09 02:35:40;;;;;;;;;0.00;0.00;;;;;13.11;75.55;100533.22;4978776;28;45424;-78
2022/11/09 02:38:09;;;;;;;;;0.00;0.00;;;;;13.06;75.68;100527.34;4977717;28;70742;-78
2022/11/09 02:40:37;;;;;;;;;0.00;0.00;;;;;13.09;75.59;100526.34;4978853;28;45324;-78
2022/11/09 02:43:04;;;;;;;;;0.00;0.00;;;;;13.09;75.46;100542.91;4977723;28;45558;-77
2022/11/09 02:45:29;;;;;;;;;0.00;0.00;;;;;13.06;75.01;100535.19;4977581;28;45358;-77
2022/11/09 02:47:54;;;;;;;;;0.00;0.00;;;;;13.05;74.81;100548.31;4977407;28;68299;-77
2022/11/09 02:50:20;;;;;;;;;0.75;0.75;;;;;13.04;75.02;100554.44;4978063;28;65753;-77
2022/11/09 02:52:45;;;;;;;;;0.50;0.00;;;;;13.03;75.06;100556.19;4978741;28;45373;-78
2022/11/09 02:55:10;;;;;;;;;0.25;0.00;;;;;12.98;74.94;100551.19;4977892;28;66116;-78
2022/11/09 02:57:36;;;;;;;;;1.00;0.00;;;;;12.98;74.84;100569.47;4978470;28;45473;-77
2022/11/09 03:00:01;;;;;;;;;0.50;0.00;;;;;12.97;74.91;100573.00;4977881;28;68154;-78
2022/11/09 03:02:26;;;;;;;;;1.00;0.00;;;;;12.95;75.13;100576.59;4978265;28;45350;-78
2022/11/09 03:04:52;;;;;;;;;0.75;0.00;;;;;12.93;75.54;100575.81;4977141;28;46345;-76
2022/11/09 03:07:17;;;;;;;;;1.00;0.00;;;;;12.91;75.57;100583.69;4977508;28;71801;-77
2022/11/09 03:09:42;;;;;;;;;0.00;0.00;;;;;12.89;75.55;100589.88;4977540;28;69552;-78
2022/11/09 03:14:52;;;;;;;;;1.50;0.00;;;;;12.84;75.40;100586.63;4978370;28;45445;-78
2022/11/09 03:17:17;;;;;;;;;1.00;0.00;;;;;12.81;75.98;100591.97;4977169;28;67443;-78
2022/11/09 03:19:43;;;;;;;;;2.00;0.00;;;;;12.82;75.76;100586.69;4978459;28;45340;-77
2022/11/09 03:22:09;;;;;;;;;2.75;1.00;;;;;12.78;75.81;100580.72;4978372;28;45517;-77
2022/11/09 03:24:34;;;;;;;;;0.00;0.00;;;;;12.77;75.51;100586.00;4978239;28;45406;-77
2022/11/09 03:26:59;;;;;;;;;0.00;0.00;;;;;12.74;75.53;100588.75;4977179;28;69062;-78
2022/11/09 03:29:24;;;;;;;;;0.50;0.00;;;;;12.72;75.14;100586.22;4976978;28;65416;-77
2022/11/09 03:31:50;;;;;;;;;0.00;0.00;;;;;12.69;75.40;100581.09;4976743;28;65110;-78
2022/11/09 03:34:15;;;;;;;;;0.00;0.00;;;;;12.65;75.64;100589.09;4976333;28;75181;-77
2022/11/09 03:36:40;;;;;;;;;1.00;0.00;;;;;12.65;75.53;100589.09;4975455;28;71134;-78
2022/11/09 03:39:06;;;;;;;;;0.00;0.00;;;;;12.67;75.24;100582.09;4977091;28;67076;-77
2022/11/09 03:41:31;;;;;;;;;0.00;0.00;;;;;12.64;75.19;100584.81;4976965;28;67140;-78
2022/11/09 03:43:56;;;;;;;;;0.25;0.00;;;;;12.62;75.13;100595.31;4977731;28;54682;-77
2022/11/09 03:46:22;;;;;;;;;0.00;0.00;;;;;12.59;75.73;100600.66;4977410;28;45311;-78
2022/11/09 03:48:47;;;;;;;;;0.00;0.00;;;;;12.58;75.50;100593.75;4977023;28;63941;-77
2022/11/09 03:51:12;;;;;;;;;0.00;0.00;;;;;12.54;75.60;100593.00;4976953;28;69719;-78
2022/11/09 03:53:38;;;;;;;;;1.00;0.00;;;;;12.50;75.69;100588.81;4977407;28;54250;-77
2022/11/09 03:56:03;;;;;;;;;0.00;0.00;;;;;12.49;75.25;100592.34;4976619;28;73029;-77
2022/11/09 03:58:28;;;;;;;;;0.00;0.00;;;;;12.48;75.18;100593.25;4977707;28;45308;-77
2022/11/09 04:00:54;;;;;;;;;0.00;0.00;;;;;12.46;75.62;100594.22;4976919;28;57154;-77
2022/11/09 04:03:19;;;;;;;;;0.00;0.00;;;;;12.43;75.51;100592.59;4977587;28;45974;-77
2022/11/09 04:05:44;;;;;;;;;2.00;0.00;;;;;12.44;75.61;100596.88;4976500;28;73146;-77
2022/11/09 04:08:10;;;;;;;;;0.00;0.00;;;;;12.42;75.56;100608.31;4959728;28;49217;-77
2022/11/09 04:10:35;;;;;;;;;0.00;0.00;;;;;12.39;75.37;100601.44;4976541;28;70381;-77
2022/11/09 04:13:00;;;;;;;;;0.00;0.00;;;;;12.42;75.79;100609.13;4976315;28;75588;-78
2022/11/09 04:15:26;;;;;;;;;0.25;0.00;;;;;12.39;75.44;100614.50;4976700;28;52145;-77
2022/11/09 04:17:58;;;;;;;;;0.75;0.00;;;;;12.36;75.38;100625.88;4976534;28;68087;-78
2022/11/09 04:20:25;;;;;;;;;0.75;0.75;;;;;12.37;75.33;100616.31;4959985;28;45336;-78
2022/11/09 04:23:02;;;;;;;;;0.50;0.00;;;;;12.36;75.76;100619.81;4959658;28;46181;-78
2022/11/09 04:25:31;;;;;;;;;0.75;0.00;;;;;12.37;75.90;100632.81;4977070;28;45306;-77
2022/11/09 04:27:57;;;;;;;;;0.00;0.00;;;;;12.34;75.54;100632.94;4977302;28;45241;-78
2022/11/09 04:30:24;;;;;;;;;1.00;0.00;;;;;12.33;75.83;100648.66;4976955;28;45294;-78
2022/11/09 04:32:49;;;;;;;;;0.00;0.00;;;;;12.29;75.93;100636.63;4959484;28;45350;-77
2022/11/09 04:35:15;;;;;;;;;0.00;0.00;;;;;12.29;75.95;100640.06;4976759;28;49911;-78
2022/11/09 04:37:40;;;;;;;;;0.00;0.00;;;;;12.26;75.52;100652.38;4959443;28;45477;-77
2022/11/09 04:40:06;;;;;;;;;1.00;0.00;;;;;12.28;76.01;100658.44;4975996;28;68442;-77
2022/11/09 04:42:31;;;;;;;;;2.00;0.00;;;;;12.25;75.89;100658.53;4975640;28;47514;-77
2022/11/09 04:44:56;;;;;;;;;0.25;0.00;;;;;12.23;76.17;100658.59;4975547;28;73298;-77
2022/11/09 04:47:22;;;;;;;;;0.75;0.00;;;;;12.22;76.13;100661.25;4976195;28;60526;-78
2022/11/09 04:49:47;;;;;;;;;0.00;0.00;;;;;12.18;76.31;100665.72;4976180;28;64764;-77
2022/11/09 04:52:12;;;;;;;;;0.00;0.00;;;;;12.19;76.08;100664.84;4975875;28;70821;-77
2022/11/09 04:54:38;;;;;;;;;0.00;0.00;;;;;12.20;75.68;100659.56;4976047;28;68142;-77
2022/11/09 04:57:03;;;;;;;;;0.00;0.00;;;;;12.23;76.19;100669.03;4975923;28;67378;-78
2022/11/09 04:59:28;;;;;;;;;1.00;0.00;;;;;12.22;75.93;100661.25;4975579;28;65440;-78
2022/11/09 05:01:54;;;;;;;;;4.00;0.00;;;;;12.20;76.18;100656.06;4976027;28;66423;-77
2022/11/09 05:04:19;;;;;;;;;2.00;0.00;;;;;12.21;75.99;100665.63;4975819;28;70228;-77
2022/11/09 05:06:44;;;;;;;;;3.00;0.00;;;;;12.20;75.94;100663.91;4976438;28;45785;-77
2022/11/09 05:09:10;;;;;;;;;0.00;0.00;;;;;12.22;75.92;100658.63;4975900;28;69073;-78
2022/11/09 05:11:35;;;;;;;;;0.00;0.00;;;;;12.25;75.79;100656.75;4976237;28;54815;-78
2022/11/09 05:14:01;;;;;;;;;1.75;0.00;;;;;12.23;75.80;100658.59;4975432;28;70819;-78
2022/11/09 05:16:27;;;;;;;;;1.00;0.00;;;;;12.26;75.61;100660.22;4976659;28;45324;-77
2022/11/09 05:18:52;;;;;;;;;1.00;0.00;;;;;12.23;75.70;100657.75;4976597;28;45434;-78
2022/11/09 05:21:18;;;;;;;;;0.25;0.00;;;;;12.24;75.71;100662.03;4975635;28;70985;-77
2022/11/09 05:23:58;;;;;;;;;2.00;0.00;;;;;12.24;75.62;100665.53;4975125;28;45324;-77
2022/11/09 05:26:42;;;;;;;;;0.75;0.00;;;;;12.25;75.55;100666.38;4976459;28;45489;-77
2022/11/09 05:29:11;;;;;;;;;0.00;0.00;;;;;12.27;75.81;100673.22;4991353;28;45535;-77
2022/11/09 05:31:37;;;;;;;;;1.50;0.00;;;;;12.22;75.69;100669.06;4976302;28;46249;-77
2022/11/09 05:34:04;;;;;;;;;0.00;0.00;;;;;12.25;75.86;100667.22;4961196;28;45490;-78
2022/11/09 05:36:32;;;;;;;;;0.00;0.00;;;;;12.20;75.96;100669.13;4976253;28;45420;-77
2022/11/09 05:38:58;;;;;;;;;0.00;0.00;;;;;12.23;75.86;100674.25;4976247;28;45400;-77
2022/11/09 05:41:23;;;;;;;;;0.00;0.00;;;;;12.23;75.81;100670.78;4970763;28;46133;-78
2022/11/09 05:43:49;;;;;;;;;0.75;0.00;;;;;12.24;75.76;100659.44;4975908;28;45352;-77
2022/11/09 05:46:15;;;;;;;;;0.00;0.00;;;;;12.25;75.91;100663.75;4974862;28;45381;-77
2022/11/09 05:48:41;;;;;;;;;1.75;0.00;;;;;12.23;75.89;100662.97;4976313;28;45448;-78
2022/11/09 05:51:08;;;;;;;;;0.50;0.00;;;;;12.24;76.08;100668.13;4974902;28;46327;-77
2022/11/09 05:53:33;;;;;;;;;2.00;0.00;;;;;12.26;76.00;100665.44;4977239;28;45656;-77
2022/11/09 05:56:10;;;;;;;;;3.00;0.00;;;;;12.25;75.86;100669.81;4979340;28;45312;-77
2022/11/09 05:58:37;;;;;;;;;0.00;0.00;;;;;12.28;76.32;100664.50;4978309;28;45400;-77
2022/11/09 06:01:07;;;;;;;;;0.00;0.00;;;;;12.27;75.86;100673.22;4978265;28;45658;-77
2022/11/09 06:03:33;;;;;;;;;0.00;0.00;;;;;12.33;75.80;100685.19;4979372;28;45311;-77
2022/11/09 06:06:01;;;;;;;;;4.75;0.00;;;;;12.33;76.04;100688.66;4993699;28;66229;-77
2022/11/09 06:08:26;;;;;;;;;1.00;0.00;;;;;12.30;76.65;100687.94;4979404;28;45409;-77
2022/11/09 06:10:57;;;;;;;;;0.00;0.00;;;;;12.27;76.86;100690.66;4978745;28;46623;-77
2022/11/09 06:13:22;;;;;;;;;0.25;0.25;;;;;12.29;77.03;100689.66;4978175;28;45301;-77
2022/11/09 06:15:55;;;;;;;;;1.00;0.00;;;;;12.33;76.79;100690.41;4978533;28;61467;-77
2022/11/09 06:18:24;;;;;;;;;0.50;0.50;;;;;12.31;76.90;100689.63;4978280;28;45313;-77
2022/11/09 06:20:51;;;;;;;;;5.25;0.00;;;;;12.34;76.96;100686.91;4977956;28;46087;-77
2022/11/09 06:23:17;;;;;;;;;1.00;0.00;;;;;12.36;76.93;100690.31;4979159;28;45583;-77
2022/11/09 06:25:42;;;;;;;;;0.25;0.00;;;;;12.36;76.91;100696.38;4977794;28;68254;-77
2022/11/09 06:28:07;;;;;;;;;0.00;0.00;;;;;12.35;76.91;100699.91;4978075;28;69462;-77
2022/11/09 06:30:32;;;;;;;;;0.75;0.75;;;;;12.35;77.01;100702.50;4978873;28;46921;-78
2022/11/09 06:33:01;;;;;;;;;1.50;0.00;;;;;12.35;77.24;100706.84;4977809;28;72957;-77
2022/11/09 06:35:27;;;;;;;;;2.00;0.25;;;;;12.35;77.41;100707.72;4978922;28;45492;-77
2022/11/09 06:37:57;;;;;;;;;2.00;1.00;;;;;12.33;77.60;100709.56;4978790;28;45381;-78
2022/11/09 06:40:22;;;;;;;;;0.50;0.50;;;;;12.31;78.03;100708.75;4978256;28;46413;-78
2022/11/09 06:42:47;;;;;;;;;3.00;0.75;;;;;12.34;77.71;100718.22;4978138;28;62537;-77
2022/11/09 06:45:13;;;;;;;;;1.00;1.00;;;;;12.30;78.23;100717.47;4978184;28;65572;-78
2022/11/09 06:47:38;;;;;;;;;0.00;0.00;;;;;12.31;78.05;100721.81;4977528;28;70182;-77
2022/11/09 06:50:03;;;;;;;;;1.50;0.00;;;;;12.32;78.08;100723.50;4978332;28;59399;-77
2022/11/09 06:52:29;;;;;;;;;1.50;1.00;;;;;12.33;78.29;100727.81;4978541;28;45324;-78
2022/11/09 06:54:54;;;;;;;;;3.75;0.50;;;;;12.36;78.29;100730.31;4977541;28;61196;-78
2022/11/09 06:57:19;;;;;;;;;1.50;1.00;;;;;12.37;78.37;100737.25;4977959;28;65184;-77
2022/11/09 06:59:45;;;;;;;;;0.75;0.75;;;;;12.39;78.44;100734.56;4977639;28;66748;-77
2022/11/09 07:02:16;;;;;;;;;0.50;0.50;;;;;12.40;78.21;100733.66;4978028;28;67121;-77
2022/11/09 07:04:41;;;;;;;;;1.50;0.75;;;;;12.42;78.51;100742.28;4977657;28;45398;-77
2022/11/09 07:07:07;;;;;;;;;2.00;0.00;;;;;12.42;78.93;100744.88;4977384;28;70323;-77
2022/11/09 07:09:32;;;;;;;;;0.75;0.50;;;;;12.43;78.69;100748.38;4977603;28;75555;-78
2022/11/09 07:11:57;;;;;;;;;5.50;0.25;;;;;12.46;78.65;100748.25;4977593;28;62988;-77
2022/11/09 07:14:23;;;;;;;;;1.50;1.25;;;;;12.47;78.30;100758.63;4977528;28;67318;-77
2022/11/09 07:16:48;;;;;;;;;1.25;1.00;;;;;12.48;78.42;100757.75;4978223;28;45491;-77
2022/11/09 07:19:13;;;;;;;;;1.00;1.00;;;;;12.50;78.38;100757.66;4977097;28;74713;-77
2022/11/09 07:21:38;;;;;;;;;4.00;0.75;;;;;12.52;78.37;100758.47;4977275;28;71940;-77
2022/11/09 07:24:04;;;;;;;;;1.75;0.75;;;;;12.56;78.22;100760.06;4977311;28;56875;-77
2022/11/09 07:26:29;;;;;;;;;1.00;1.00;;;;;12.58;77.93;100763.47;4978121;28;45314;-77
2022/11/09 07:28:55;;;;;;;;;6.75;1.00;;;;;12.62;78.29;100772.03;4977974;28;46307;-77
2022/11/09 07:31:20;;;;;;;;;3.00;1.00;;;;;12.67;77.82;100768.34;4977142;28;73062;-77
2022/11/09 07:33:45;;;;;;;;;2.50;1.00;;;;;12.71;78.01;100774.31;4977251;28;62060;-77
2022/11/09 07:36:11;;;;;;;;;3.00;1.00;;;;;12.74;77.50;100782.00;4977045;28;69430;-77
2022/11/09 07:38:36;;;;;;;;;2.50;1.00;;;;;12.75;77.78;100783.72;4977226;28;46194;-77
2022/11/09 07:41:01;;;;;;;;;3.25;1.00;;;;;12.78;77.94;100783.63;4977737;28;45429;-77
2022/11/09 07:43:28;;;;;;;;;2.00;1.00;;;;;12.79;77.82;100783.53;4976097;28;60470;-78
2022/11/09 07:45:53;;;;;;;;;2.00;1.00;;;;;12.84;77.34;100786.00;4977838;28;45304;-77
2022/11/09 07:48:19;;;;;;;;;1.00;0.00;;;;;12.88;77.53;100792.81;4977513;28;51760;-77
2022/11/09 07:50:44;;;;;;;;;1.25;1.25;;;;;12.86;77.24;100785.94;4977793;28;45403;-77
2022/11/09 07:53:12;;;;;;;;;2.75;1.50;;;;;12.94;77.41;100789.09;4976896;28;58295;-77
2022/11/09 07:55:37;;;;;;;;;2.00;2.00;;;;;12.98;77.33;100788.94;4976657;28;45367;-78
2022/11/09 07:58:09;;;;;;;;;3.75;1.00;;;;;13.02;77.42;100787.06;4977560;28;45463;-78
2022/11/09 08:00:36;;;;;;;;;1.50;1.00;;;;;13.08;77.28;100791.22;4977559;28;45722;-78
2022/11/09 08:03:02;;;;;;;;;2.00;1.50;;;;;13.09;77.08;100793.78;4977582;28;45400;-78
2022/11/09 08:05:28;;;;;;;;;3.00;1.00;;;;;13.07;77.04;100790.34;4976350;28;45451;-78
2022/11/09 08:08:00;;;;;;;;;1.00;0.75;;;;;13.13;76.86;100800.56;4977115;28;46141;-78
2022/11/09 08:10:26;;;;;;;;;2.00;1.00;;;;;13.15;77.11;100797.91;4976178;28;45440;-79
2022/11/09 08:12:56;;;;;;;;;1.25;1.25;;;;;13.17;77.15;100806.53;4977564;28;45451;-80
2022/11/09 08:15:21;;;;;;;;;1.00;1.00;;;;;13.20;77.15;100802.94;4977537;28;45253;-78
2022/11/09 08:17:47;;;;;;;;;1.00;1.00;;;;;13.24;76.69;100799.28;4975849;28;46750;-78
2022/11/09 08:20:12;;;;;;;;;2.75;2.00;;;;;13.25;76.98;100806.25;4975281;28;72407;-78
2022/11/09 08:22:42;;;;;;;;;1.00;1.00;;;;;13.30;76.63;100809.53;4971680;28;45396;-78
2022/11/09 08:25:08;;;;;;;;;5.50;1.00;;;;;13.33;76.28;100801.56;4974668;28;45544;-78
2022/11/09 08:27:38;;;;;;;;;2.00;0.50;;;;;13.35;76.44;100808.47;4958941;28;46103;-78
2022/11/09 08:30:05;;;;;;;;;2.50;2.00;;;;;13.40;76.33;100815.28;4976983;28;45724;-78
2022/11/09 08:32:31;;;;;;;;;1.00;1.00;;;;;13.42;75.94;100822.13;4956383;28;45366;-79
2022/11/09 08:34:56;;;;;;;;;1.00;1.00;;;;;13.44;76.40;100822.91;4967414;28;45523;-78
2022/11/09 08:37:21;;;;;;;;;1.75;1.00;;;;;13.48;75.99;100819.28;4976288;28;45968;-78
2022/11/09 08:39:47;;;;;;;;;4.25;0.00;;;;;13.51;75.62;100829.63;4976602;28;45518;-79
2022/11/09 08:42:12;;;;;;;;;3.50;1.00;;;;;13.52;75.92;100828.72;4975194;28;58347;-79
2022/11/09 08:44:37;;;;;;;;;1.50;1.50;;;;;13.55;75.51;100828.56;4959072;28;45500;-79
2022/11/09 08:47:03;;;;;;;;;4.25;1.00;;;;;13.60;75.52;100833.63;4975775;28;63674;-79
2022/11/09 08:49:28;;;;;;;;;2.00;1.00;;;;;13.66;75.36;100833.38;4975799;28;65986;-78
2022/11/09 08:51:53;;;;;;;;;2.00;1.00;;;;;13.75;74.94;100842.63;4975466;28;64608;-78
2022/11/09 08:54:18;;;;;;;;;0.00;0.00;;;;;13.73;74.86;100824.38;4975540;28;68334;-78
2022/11/09 08:56:45;;;;;;;;;2.75;1.00;;;;;13.83;74.87;100842.31;4970683;28;71752;-79
2022/11/09 08:59:10;;;;;;;;;2.50;1.00;;;;;13.89;74.34;100839.44;4958510;28;45274;-78
2022/11/09 09:01:36;;;;;;;;;2.00;0.00;;;;;13.92;74.47;100841.94;4976478;28;45218;-79
2022/11/09 09:04:01;;;;;;;;;1.50;0.75;;;;;14.00;73.99;100849.47;4958358;28;69886;-79
2022/11/09 09:06:26;;;;;;;;;1.25;1.00;;;;;14.03;74.39;100855.44;4974729;28;74682;-78
2022/11/09 09:08:51;;;;;;;;;2.00;1.00;;;;;14.17;74.26;100861.84;4975372;28;69952;-78
2022/11/09 09:11:17;;;;;;;;;2.25;1.00;;;;;14.23;73.70;100861.63;4957863;28;65305;-79
2022/11/09 09:13:42;;;;;;;;;3.75;2.00;;;;;14.31;73.63;100868.22;4976220;28;45354;-78
2022/11/09 09:16:10;;;;;;;;;4.00;1.00;;;;;14.42;73.67;100869.53;4973736;28;74544;-76
2022/11/09 09:18:35;;;;;;;;;2.50;1.00;;;;;14.49;73.27;100865.75;4958436;28;45364;-76
2022/11/09 09:21:04;;;;;;;;;2.00;1.00;;;;;14.58;72.94;100865.38;4974821;28;45407;-77
2022/11/09 09:23:30;;;;;;;;;4.00;1.00;;;;;14.66;72.79;100871.13;4975066;28;45416;-78
2022/11/09 09:25:56;;;;;;;;;3.50;1.00;;;;;14.74;72.32;100876.00;4975074;28;60913;-78
2022/11/09 09:28:21;;;;;;;;;3.25;2.00;;;;;14.74;71.85;100876.00;4956364;28;72200;-78
2022/11/09 09:30:47;;;;;;;;;3.75;0.00;;;;;14.80;71.83;100881.00;4974978;28;68176;-77
2022/11/09 09:33:12;;;;;;;;;6.00;1.00;;;;;14.88;71.38;100896.38;4974823;28;66780;-79
2022/11/09 09:35:37;;;;;;;;;2.00;1.00;;;;;14.90;71.29;100886.69;4974384;28;56251;-78
2022/11/09 09:38:03;;;;;;;;;3.00;1.00;;;;;14.96;71.09;100888.19;4974008;28;73338;-78
2022/11/09 09:40:39;;;;;;;;;2.00;1.50;;;;;15.02;70.95;100891.34;4975430;28;45461;-77
2022/11/09 09:43:05;;;;;;;;;1.00;1.00;;;;;15.10;70.39;100891.03;4961924;28;45266;-78
2022/11/09 09:45:33;;;;;;;;;0.75;0.75;;;;;15.17;70.67;100878.47;4974681;28;74037;-77
2022/11/09 09:48:22;;;;;;;;;1.00;1.00;;;;;15.20;69.91;100881.81;4957732;28;45706;-77
2022/11/09 09:50:59;;;;;;;;;1.75;0.00;;;;;15.25;69.77;100885.06;4958593;28;45438;-78
2022/11/09 09:53:40;;;;;;;;;2.75;1.00;;;;;15.42;69.43;100896.56;4958202;28;45514;-78
2022/11/09 09:56:11;;;;;;;;;0.25;0.25;;;;;15.48;68.49;100893.66;4973742;28;45515;-78
2022/11/09 09:58:41;;;;;;;;;3.25;1.00;;;;;15.50;68.43;100910.16;4973915;28;45837;-78
2022/11/09 10:01:16;;;;;;;;;2.75;1.00;;;;;15.46;68.01;100901.59;4957745;28;45439;-77
2022/11/09 10:03:41;;;;;;;;;0.75;0.00;;;;;15.41;67.42;100905.34;4974735;28;45310;-78
2022/11/09 10:06:21;;;;;;;;;1.00;1.00;;;;;15.46;67.98;100922.56;4974751;28;51682;-77
2022/11/09 10:08:53;;;;;;;;;2.00;1.00;;;;;15.49;67.73;100927.69;4974342;28;45431;-78
2022/11/09 10:11:42;;;;;;;;;3.25;1.00;;;;;15.49;67.54;100946.03;4969537;28;45542;-78
2022/11/09 10:14:16;;;;;;;;;3.00;0.00;;;;;15.57;67.62;100942.22;4956492;28;45654;-77
2022/11/09 10:16:51;;;;;;;;;1.25;1.00;;;;;15.63;66.67;100940.13;4974625;28;47142;-76
2022/11/09 10:19:32;;;;;;;;;2.00;0.00;;;;;15.62;66.12;100945.47;4971200;28;45509;-78
2022/11/09 10:22:07;;;;;;;;;1.00;1.00;;;;;15.60;66.00;100940.31;4938488;28;45455;-78
2022/11/09 10:24:52;;;;;;;;;0.50;0.00;;;;;15.70;66.31;100947.75;4946388;28;45437;-77
2022/11/09 10:27:27;;;;;;;;;2.00;0.25;;;;;15.80;66.32;100952.50;4956590;28;47589;-77
2022/11/09 10:29:53;;;;;;;;;1.00;1.00;;;;;15.96;66.17;100962.28;4957624;28;45791;-78
2022/11/09 10:32:21;;;;;;;;;1.00;1.00;;;;;16.04;65.55;100966.22;4974489;28;45351;-78
2022/11/09 10:35:25;;;;;;;;;0.50;0.00;;;;;16.16;64.84;100970.06;4975067;28;45372;-78
2022/11/09 10:37:51;;;;;;;;;0.00;0.00;;;;;16.28;63.81;100976.47;4974706;28;46762;-78
2022/11/09 10:40:24;;;;;;;;;2.50;0.50;;;;;16.29;63.82;100990.44;4976413;28;45404;-78
2022/11/09 10:42:57;;;;;;;;;2.75;1.00;;;;;16.29;64.19;100972.94;4961017;28;45328;-78
2022/11/09 10:45:32;;;;;;;;;1.75;1.00;;;;;16.48;63.79;100983.38;4960145;28;45327;-77
2022/11/09 10:47:58;;;;;;;;;3.00;0.00;;;;;16.69;63.38;100984.06;4985061;28;47112;-77
2022/11/09 10:50:25;;;;;;;;;3.00;1.00;;;;;16.97;62.94;100985.31;4960434;28;45376;-78
2022/11/09 10:52:51;;;;;;;;;1.00;1.00;;;;;16.96;61.91;100984.47;4960552;28;45334;-78
2022/11/09 10:55:27;;;;;;;;;2.00;0.25;;;;;16.85;61.60;100981.56;4978236;28;45444;-78
2022/11/09 10:58:22;;;;;;;;;1.75;0.00;;;;;16.78;62.07;100980.97;4976785;28;46401;-78
2022/11/09 11:01:11;;;;;;;;;3.00;1.00;;;;;16.85;62.60;100988.59;4936283;28;45526;-77
2022/11/09 11:03:38;;;;;;;;;1.50;0.75;;;;;16.79;62.25;100976.56;4920639;28;45294;-78
2022/11/09 11:06:24;;;;;;;;;0.50;0.50;;;;;16.81;61.65;100988.72;4936758;28;45546;-77
2022/11/09 11:09:09;;;;;;;;;2.75;1.00;;;;;17.28;62.42;100994.25;4936215;28;46068;-77
2022/11/09 11:11:36;;;;;;;;;0.00;0.00;;;;;18.22;59.78;100986.50;4934986;28;45397;-78
2022/11/09 11:14:10;;;;;;;;;0.75;0.25;;;;;19.47;59.33;100983.47;4935301;28;45551;-78
2022/11/09 11:16:36;;;;;;;;;2.00;0.75;;;;;20.76;53.96;100986.66;4936554;28;45398;-78
2022/11/09 11:19:03;;;;;;;;;2.25;0.00;;;;;22.11;53.97;100985.06;4936545;28;47265;-77
2022/11/09 11:21:29;;;;;;;;;2.75;1.00;;;;;22.21;51.68;100980.81;4936287;28;45388;-77
2022/11/09 11:24:14;;;;;;;;;1.00;0.00;;;;;21.40;51.05;100982.19;4936843;28;45492;-78
2022/11/09 11:26:45;;;;;;;;;1.00;1.00;;;;;20.63;50.82;100982.19;4925423;28;45510;-78
2022/11/09 11:29:43;;;;;;;;;3.00;1.00;;;;;20.42;51.56;100986.25;4908481;28;45557;-75
2022/11/09 11:32:15;;;;;;;;;3.75;1.00;;;;;20.28;52.61;100974.78;4935795;28;45869;-78